Butte, MT

11:14 PM MDT on August 20, 2014 (GMT -0600)
Mooney | Change Station
CLOSE
Current Station
Airport
Location: Butte,
Elevation: 5545 ft
Nearby Weather Stations

Elev 5545 ft 45.95 °N, 112.50 °W | Updated 21 minutes ago

Partly Cloudy
Partly Cloudy
56 °F
Feels Like 56 °F
N
0
Wind Variable Wind from North

Today
High -- | Low -- °F
--% Chance of Precip.
Yesterday
High -- | Low -- °F
Precip. -- in
6:35 AM 8:29 PM
Waning Crescent, 16% visible
Pressure 29.89 in
Visibility 10.0 miles
Clouds Few 12000 ft
Dew Point 48 °F
Humidity 75%
Rainfall 0.02 in
Snow Depth 0 in
UV 0 out of 12
Pollen 7.10 out of 12
Air Quality Not available.
Flu Activity Not available.
METAR KBTM 210453Z AUTO 00000KT 10SM FEW120 13/09 A3003 RMK AO2 SLP120 T01330089

More Conditions Fewer Conditions

Pressure 29.89 in
Visibility 10.0 miles
Clouds Few 12000 ft
Dew Point 48 °F
Humidity 75%
Rainfall 0.02 in
Snow Depth 0 in
UV 0 out of 12
Pollen 7.10 out of 12
Air Quality Not available.
Flu Activity Not available.
METAR KBTM 210453Z AUTO 00000KT 10SM FEW120 13/09 A3003 RMK AO2 SLP120 T01330089

More Conditions Fewer Conditions

10-Day Weather Forecast

Almanac

Astronomy

Aug. 20, 2014 Rise Set
Actual Time 6:35 AM MDT 8:29 PM MDT
Civil Twilight 6:03 AM MDT 9:01 PM MDT
Nautical Twilight 5:24 AM MDT 9:40 PM MDT
Astronomical Twilight 4:41 AM MDT 10:23 PM MDT
Moon 2:13 AM MDT (8/20) 5:23 PM MDT (8/20)
Length of Visible Light 14h 57m
Length of Day
13h 53m
Tomorrow will be 2m 59s shorter.
Waning Crescent, 16% of the Moon is Illuminated
Aug 21
Waning Crescent
Aug 25
New
Sep 2
First Quarter
Sep 8
Full
Sep 15
Last Quarter

Yesterday's Extremes

State Highs State Lows

Community

WunderPhotos

Upload Photos

1,745,858 photos uploaded!

Nearby

Snow Depth

Station Depth Elevation
Basin Creek 0 in 7180 ft
Brackett Creek 0 in 7320 ft
Barker Lakes 0 in 8250 ft
Peterson Meadows 0 in 7200 ft
Tizer Basin 1 in 6840 ft

Earthquake Activity

City Distance Mag. Time & Date
No recent earthquake activity has been reported nearby.
Minimum magnitude displayed is 2.5.

Coastal Water Temperatures

Place Temperature
No Stations Reporting

Nearby Weather Stations